Time;durP1;ratioP1;P1;durP2;ratioP2;P2;SDS_P1;SDS_P2;PMS_P1;PMS_P2;Temp;Humidity;BMP_temperature;BMP_pressure;BME280_temperature;BME280_humidity;BME280_pressure;Samples;Min_cycle;Max_cycle;Signal;HPM_P1;HPM_P2
2021/07/23 00:00:34;;;;;;;13.05;8.10;;;;;;;15.15;85.12;101612.91;4944109;28;20043;-85
2021/07/23 00:02:59;;;;;;;11.07;8.02;;;;;;;15.11;85.22;101609.72;4940263;28;20138;-83
2021/07/23 00:05:25;;;;;;;10.77;8.00;;;;;;;15.03;85.83;101609.72;4943379;28;20117;-85
2021/07/23 00:07:50;;;;;;;11.15;8.85;;;;;;;14.97;85.88;101605.03;4944120;28;20063;-85
2021/07/23 00:10:16;;;;;;;11.55;9.02;;;;;;;15.03;86.11;101612.44;4941815;28;20055;-84
2021/07/23 00:12:41;;;;;;;11.52;7.90;;;;;;;14.96;85.99;101611.47;4944361;28;20047;-86
2021/07/23 00:15:07;;;;;;;12.50;8.50;;;;;;;14.92;86.31;101615.50;4940056;28;20051;-87
2021/07/23 00:17:33;;;;;;;13.65;8.32;;;;;;;14.94;86.32;101607.25;4943824;28;20424;-85
2021/07/23 00:19:58;;;;;;;12.23;8.80;;;;;;;14.95;86.45;101612.44;4942237;28;20608;-86
2021/07/23 00:22:23;;;;;;;11.82;8.43;;;;;;;14.87;86.49;101612.47;4942804;28;20130;-84
2021/07/23 00:24:49;;;;;;;13.05;8.65;;;;;;;14.85;86.54;101609.13;4942497;29;20046;-84
2021/07/23 00:27:15;;;;;;;12.13;8.68;;;;;;;14.81;86.81;101607.75;4940350;28;20051;-85
2021/07/23 00:29:42;;;;;;;12.90;8.77;;;;;;;14.85;86.60;101601.00;4943072;28;20134;-86
2021/07/23 00:32:07;;;;;;;12.50;9.10;;;;;;;14.80;86.61;101608.78;4941374;28;20058;-84
2021/07/23 00:34:33;;;;;;;13.90;8.63;;;;;;;14.79;86.74;101599.00;4937414;28;20051;-85
2021/07/23 00:36:58;;;;;;;11.45;8.20;;;;;;;14.79;86.82;101599.00;4940881;28;20727;-84
2021/07/23 00:39:24;;;;;;;11.18;8.98;;;;;;;14.73;86.93;101600.53;4942374;28;20055;-90
2021/07/23 00:41:49;;;;;;;10.48;8.00;;;;;;;14.70;87.20;101598.16;4942076;28;20098;-89
2021/07/23 00:44:15;;;;;;;12.40;8.52;;;;;;;14.65;87.28;101595.13;4938139;28;20086;-87
2021/07/23 00:46:42;;;;;;;14.57;9.23;;;;;;;14.62;87.41;101590.09;4942323;28;20542;-84
2021/07/23 00:49:08;;;;;;;12.10;9.10;;;;;;;14.56;87.73;101597.00;4941445;28;20134;-85
2021/07/23 00:51:33;;;;;;;14.77;8.70;;;;;;;14.51;88.03;101593.94;4941337;28;20481;-85
2021/07/23 00:54:00;;;;;;;12.60;9.23;;;;;;;14.51;88.07;101593.94;4941286;28;20430;-88
2021/07/23 00:56:26;;;;;;;11.52;8.60;;;;;;;14.47;88.30;101591.75;4940826;28;20673;-85
2021/07/23 00:58:53;;;;;;;14.70;9.25;;;;;;;14.40;88.29;101592.44;4932624;28;20482;-84
2021/07/23 01:01:19;;;;;;;14.57;9.50;;;;;;;14.44;88.34;101590.22;4942117;28;20126;-84
2021/07/23 01:03:45;;;;;;;13.00;9.82;;;;;;;14.39;88.36;101592.59;4940940;28;20134;-84
2021/07/23 01:06:11;;;;;;;12.73;9.38;;;;;;;14.35;88.55;101585.84;4940436;28;20134;-84
2021/07/23 01:08:37;;;;;;;14.02;9.95;;;;;;;14.32;88.89;101584.31;4942576;28;20411;-85
2021/07/23 01:11:02;;;;;;;12.35;10.00;;;;;;;14.28;89.13;101579.44;4943392;28;20066;-84
2021/07/23 01:13:28;;;;;;;14.60;9.82;;;;;;;14.29;88.96;101575.72;4942303;28;20098;-87
2021/07/23 01:15:54;;;;;;;14.45;8.95;;;;;;;14.30;88.94;101574.69;4943921;28;20516;-85
2021/07/23 01:18:19;;;;;;;12.07;9.88;;;;;;;14.22;89.26;101576.41;4940119;28;20759;-84
2021/07/23 01:20:46;;;;;;;13.95;9.50;;;;;;;14.13;89.52;101577.44;4942072;28;20126;-87
2021/07/23 01:23:15;;;;;;;14.60;10.20;;;;;;;14.13;89.69;101572.03;4942452;28;20469;-85
2021/07/23 01:25:41;;;;;;;12.50;10.02;;;;;;;14.12;89.91;101572.19;4941437;28;20413;-85
2021/07/23 01:28:07;;;;;;;12.60;10.15;;;;;;;14.10;89.90;101577.75;4942910;28;20102;-85
2021/07/23 01:30:35;;;;;;;14.40;9.82;;;;;;;14.03;89.91;101579.44;4939643;28;20047;-85
2021/07/23 01:33:01;;;;;;;12.70;9.88;;;;;;;13.98;90.45;101579.09;4944209;28;20078;-88
2021/07/23 01:35:27;;;;;;;14.02;10.32;;;;;;;13.93;90.47;101570.69;4942575;28;20043;-85
2021/07/23 01:37:54;;;;;;;12.65;9.68;;;;;;;13.83;90.72;101567.28;4943913;28;20047;-86
2021/07/23 01:40:19;;;;;;;14.07;10.07;;;;;;;13.87;91.11;101571.34;4941840;28;20086;-90
2021/07/23 01:42:45;;;;;;;14.90;10.80;;;;;;;13.91;90.85;101570.00;4944061;28;20337;-87
2021/07/23 01:45:12;;;;;;;14.32;10.63;;;;;;;13.88;90.69;101571.16;4941426;28;20052;-85
2021/07/23 01:47:37;;;;;;;16.70;11.10;;;;;;;13.84;90.90;101571.66;4945308;28;20075;-86
2021/07/23 01:50:03;;;;;;;15.73;10.93;;;;;;;13.81;90.99;101566.59;4947107;28;20466;-86
2021/07/23 01:52:29;;;;;;;14.77;10.50;;;;;;;13.79;91.16;101569.47;4944665;28;20051;-85
2021/07/23 01:54:55;;;;;;;13.02;9.82;;;;;;;13.75;91.30;101570.78;4947183;28;20039;-85
2021/07/23 01:57:20;;;;;;;13.50;10.57;;;;;;;13.66;91.40;101564.53;4945423;28;20077;-82
2021/07/23 01:59:46;;;;;;;13.35;10.30;;;;;;;13.61;91.63;101563.34;4946294;28;20127;-84
2021/07/23 02:02:11;;;;;;;14.32;10.15;;;;;;;13.57;91.50;101567.41;4944801;28;20094;-84
2021/07/23 02:04:36;;;;;;;14.95;10.35;;;;;;;13.51;91.60;101566.22;4944299;28;20455;-83
2021/07/23 02:07:02;;;;;;;14.63;11.13;;;;;;;13.48;92.02;101559.28;4946485;28;20367;-84
2021/07/23 02:09:29;;;;;;;14.85;10.73;;;;;;;13.44;92.09;101563.34;4945904;28;20051;-84
2021/07/23 02:11:55;;;;;;;14.75;10.93;;;;;;;13.37;91.89;101556.06;4947166;28;20047;-84
2021/07/23 02:14:20;;;;;;;17.08;10.93;;;;;;;13.34;92.45;101562.63;4945020;28;20124;-84
2021/07/23 02:16:46;;;;;;;15.55;11.68;;;;;;;13.28;92.62;101566.81;4944499;28;20047;-85
2021/07/23 02:19:11;;;;;;;17.17;12.07;;;;;;;13.27;92.60;101550.81;4943612;28;20069;-84
2021/07/23 02:21:37;;;;;;;16.67;10.82;;;;;;;13.23;93.30;101558.31;4946534;28;20071;-86
2021/07/23 02:24:04;;;;;;;16.67;11.90;;;;;;;13.18;93.09;101549.06;4944084;28;20059;-84
2021/07/23 02:26:29;;;;;;;17.88;11.13;;;;;;;13.14;93.36;101551.22;4943757;28;20058;-86
2021/07/23 02:28:56;;;;;;;15.15;11.25;;;;;;;13.09;93.64;101550.88;4945216;28;20047;-85
2021/07/23 02:31:22;;;;;;;17.77;12.07;;;;;;;13.05;93.84;101554.91;4945032;28;20078;-85
2021/07/23 02:33:47;;;;;;;18.17;11.80;;;;;;;13.03;93.98;101551.50;4945657;28;20138;-86
2021/07/23 02:36:13;;;;;;;17.33;11.88;;;;;;;13.04;93.85;101545.97;4944343;28;20059;-85
2021/07/23 02:38:38;;;;;;;17.52;12.52;;;;;;;13.00;93.80;101546.44;4942357;28;20086;-90
2021/07/23 02:41:04;;;;;;;18.83;12.48;;;;;;;12.97;93.83;101549.47;4943194;28;20058;-85
2021/07/23 02:43:30;;;;;;;16.67;12.40;;;;;;;12.93;94.10;101550.81;4945496;28;20051;-85
2021/07/23 02:45:55;;;;;;;17.55;12.25;;;;;;;12.87;94.46;101545.06;4944638;28;20050;-84
2021/07/23 02:48:21;;;;;;;15.38;11.65;;;;;;;12.85;94.22;101533.59;4944911;28;20598;-84
2021/07/23 02:50:46;;;;;;;15.77;11.70;;;;;;;12.84;94.36;101536.47;4943520;28;20138;-88
2021/07/23 02:53:11;;;;;;;16.42;12.20;;;;;;;12.80;94.24;101533.25;4942101;28;20043;-84
2021/07/23 02:55:37;;;;;;;18.20;12.65;;;;;;;12.77;94.23;101540.78;4942315;28;20668;-84
2021/07/23 02:58:03;;;;;;;16.83;12.13;;;;;;;12.72;94.66;101537.75;4943226;28;20077;-85
2021/07/23 03:00:28;;;;;;;18.65;12.98;;;;;;;12.70;94.89;101540.59;4943479;28;20048;-85
2021/07/23 03:02:54;;;;;;;19.55;12.85;;;;;;;12.67;94.99;101540.06;4944075;28;20043;-85
2021/07/23 03:05:19;;;;;;;17.92;12.35;;;;;;;12.64;94.92;101539.38;4943085;28;20047;-88
2021/07/23 03:07:45;;;;;;;17.98;12.13;;;;;;;12.59;95.32;101539.00;4943897;28;20047;-86
2021/07/23 03:10:10;;;;;;;18.33;12.48;;;;;;;12.60;95.46;101543.41;4944272;28;20078;-85
2021/07/23 03:12:36;;;;;;;17.90;12.27;;;;;;;12.57;95.26;101543.72;4943509;28;20061;-84
2021/07/23 03:15:03;;;;;;;17.58;12.32;;;;;;;12.52;95.08;101542.50;4944886;28;20051;-85
2021/07/23 03:17:29;;;;;;;16.83;12.55;;;;;;;12.53;94.74;101534.25;4941833;28;20059;-87
2021/07/23 03:19:54;;;;;;;17.25;12.45;;;;;;;12.50;94.85;101539.97;4943960;28;20043;-86
2021/07/23 03:22:20;;;;;;;18.30;12.90;;;;;;;12.50;95.31;101544.50;4943893;28;20078;-85
2021/07/23 03:24:45;;;;;;;17.23;11.90;;;;;;;12.48;95.06;101539.28;4943771;28;20047;-86
2021/07/23 03:27:11;;;;;;;17.95;12.23;;;;;;;12.49;94.74;101534.75;4944273;28;20639;-86
2021/07/23 03:29:37;;;;;;;17.38;12.57;;;;;;;12.44;94.77;101535.22;4941542;28;20751;-85
2021/07/23 03:32:04;;;;;;;18.42;13.23;;;;;;;12.41;94.70;101535.53;4941986;28;20129;-89
2021/07/23 03:34:29;;;;;;;21.45;12.57;;;;;;;12.40;94.52;101534.69;4944323;28;20086;-85
2021/07/23 03:36:55;;;;;;;15.95;11.98;;;;;;;12.37;94.53;101529.63;4935391;28;20530;-85
2021/07/23 03:39:20;;;;;;;17.67;12.18;;;;;;;12.38;94.67;101527.78;4941094;28;20079;-88
2021/07/23 03:41:46;;;;;;;15.98;11.95;;;;;;;12.36;94.62;101527.09;4943748;28;20387;-86
2021/07/23 03:44:11;;;;;;;17.63;12.05;;;;;;;12.33;94.51;101530.09;4941867;28;20043;-86
2021/07/23 03:46:36;;;;;;;16.92;12.25;;;;;;;12.29;94.74;101526.88;4944032;28;20158;-84
2021/07/23 03:49:02;;;;;;;18.42;13.32;;;;;;;12.25;94.83;101525.50;4942495;28;20562;-87
2021/07/23 03:51:27;;;;;;;19.30;12.88;;;;;;;12.21;95.23;101524.13;4943575;28;20051;-85
2021/07/23 03:53:53;;;;;;;18.33;12.80;;;;;;;12.20;95.75;101522.44;4941917;28;20430;-86
2021/07/23 03:56:18;;;;;;;22.65;15.20;;;;;;;12.28;95.83;101518.94;4942981;28;20065;-87
2021/07/23 03:58:44;;;;;;;22.73;14.85;;;;;;;12.28;96.03;101519.78;4943794;28;20070;-86
2021/07/23 04:01:09;;;;;;;20.05;14.13;;;;;;;12.23;96.58;101522.13;4942700;28;20075;-85
2021/07/23 04:03:35;;;;;;;22.70;14.55;;;;;;;12.25;96.68;101513.88;4941895;28;20071;-90
2021/07/23 04:06:01;;;;;;;16.45;12.23;;;;;;;12.20;95.93;101519.75;4940958;28;20035;-85
2021/07/23 04:08:27;;;;;;;18.52;12.70;;;;;;;12.19;95.71;101515.34;4944154;28;20042;-88
2021/07/23 04:10:52;;;;;;;16.45;12.25;;;;;;;12.17;95.55;101512.00;4941455;28;20054;-85
2021/07/23 04:13:18;;;;;;;18.55;12.52;;;;;;;12.17;95.78;101512.84;4918146;28;20043;-86
2021/07/23 04:15:43;;;;;;;18.35;12.93;;;;;;;12.21;96.00;101507.16;4942164;28;20214;-88
2021/07/23 04:18:09;;;;;;;16.95;13.02;;;;;;;12.23;95.85;101500.59;4943022;28;20332;-89
2021/07/23 04:20:34;;;;;;;16.40;12.10;;;;;;;12.23;95.41;101503.28;4943599;28;20047;-86
2021/07/23 04:23:00;;;;;;;19.23;13.90;;;;;;;12.19;95.29;101510.81;4943233;28;20051;-84
2021/07/23 04:25:25;;;;;;;22.02;13.73;;;;;;;12.14;96.29;101504.22;4942412;28;20047;-86
2021/07/23 04:27:51;;;;;;;20.75;14.88;;;;;;;12.13;96.22;101507.91;4941797;28;20047;-90
2021/07/23 04:30:17;;;;;;;23.23;16.30;;;;;;;12.11;96.64;101502.72;4939228;28;20043;-88
2021/07/23 04:32:43;;;;;;;21.42;15.60;;;;;;;12.09;96.91;101498.50;4944104;28;20039;-86
2021/07/23 04:35:10;;;;;;;23.00;16.63;;;;;;;12.15;97.00;101505.94;4941698;28;20524;-85
2021/07/23 04:37:36;;;;;;;22.48;16.20;;;;;;;12.19;97.20;101509.97;4943533;28;20125;-87
2021/07/23 04:40:06;;;;;;;22.30;16.08;;;;;;;12.17;97.48;101506.63;4940796;28;20081;-88
2021/07/23 04:42:32;;;;;;;27.55;16.58;;;;;;;12.22;97.55;101501.59;4953058;28;20377;-87
2021/07/23 04:44:57;;;;;;;23.17;16.45;;;;;;;12.20;97.30;101500.94;4943932;28;20414;-85
2021/07/23 04:47:23;;;;;;;24.08;16.20;;;;;;;12.27;97.38;101507.34;4942003;28;20051;-86
2021/07/23 04:49:50;;;;;;;22.38;16.85;;;;;;;12.31;97.21;101499.78;4943499;28;20051;-85
2021/07/23 04:52:15;;;;;;;21.92;15.63;;;;;;;12.25;97.26;101501.28;4941740;28;20102;-87
2021/07/23 04:54:41;;;;;;;23.55;15.77;;;;;;;12.35;97.31;101506.56;4942696;28;20039;-87
2021/07/23 04:57:06;;;;;;;24.67;16.23;;;;;;;12.34;97.24;101508.41;4943604;28;20434;-86
2021/07/23 04:59:32;;;;;;;24.13;15.75;;;;;;;12.38;97.44;101504.41;4940439;29;20534;-85
2021/07/23 05:01:58;;;;;;;22.27;15.18;;;;;;;12.49;97.27;101499.75;4940438;28;20039;-90
2021/07/23 05:04:24;;;;;;;21.85;15.73;;;;;;;12.53;96.84;101495.72;4942296;28;20538;-86
2021/07/23 05:06:49;;;;;;;23.13;15.20;;;;;;;12.57;96.54;101502.47;4943883;28;20473;-87
2021/07/23 05:09:15;;;;;;;19.90;14.88;;;;;;;12.63;96.43;101502.69;4942546;28;20063;-85
2021/07/23 05:11:41;;;;;;;21.27;15.15;;;;;;;12.70;96.36;101502.88;4943508;28;20043;-87
2021/07/23 05:14:07;;;;;;;25.25;15.15;;;;;;;12.80;96.63;101503.63;4941587;28;20063;-85
2021/07/23 05:16:34;;;;;;;20.75;14.60;;;;;;;12.86;95.61;101502.97;4941873;28;20434;-85
2021/07/23 05:19:00;;;;;;;22.83;14.65;;;;;;;12.95;96.11;101508.41;4944418;28;20043;-86
2021/07/23 05:21:25;;;;;;;20.42;13.95;;;;;;;13.05;95.75;101501.84;4943784;28;20055;-86
2021/07/23 05:23:51;;;;;;;18.02;13.45;;;;;;;13.12;95.35;101512.84;4948479;28;20132;-85
2021/07/23 05:26:16;;;;;;;16.98;12.73;;;;;;;13.21;96.14;101506.47;4944947;28;20493;-86
2021/07/23 05:28:42;;;;;;;17.30;13.27;;;;;;;13.31;95.01;101511.72;4947536;28;20082;-88
2021/07/23 05:31:07;;;;;;;18.63;13.13;;;;;;;13.36;95.48;101509.38;4947484;28;20043;-86
2021/07/23 05:33:33;;;;;;;17.02;11.90;;;;;;;13.48;94.88;101515.31;4945550;28;20443;-88
2021/07/23 05:35:58;;;;;;;17.48;12.10;;;;;;;13.58;94.24;101518.72;4949325;28;20067;-89
2021/07/23 05:38:23;;;;;;;15.38;10.90;;;;;;;13.68;93.54;101514.00;4946010;28;20106;-84
2021/07/23 05:40:50;;;;;;;21.58;12.85;;;;;;;13.79;93.34;101514.69;4942160;28;20250;-84
2021/07/23 05:43:16;;;;;;;15.38;11.88;;;;;;;13.89;93.27;101512.66;4946719;28;20061;-85
2021/07/23 05:45:42;;;;;;;16.15;11.05;;;;;;;13.95;93.57;101510.13;4949859;28;20043;-88
2021/07/23 05:48:09;;;;;;;15.40;11.38;;;;;;;14.02;93.58;101506.75;4946352;28;20505;-84
2021/07/23 05:50:35;;;;;;;14.30;10.65;;;;;;;14.10;92.07;101512.16;4948324;28;20047;-85
2021/07/23 05:53:07;;;;;;;18.60;11.13;;;;;;;14.17;91.87;101508.59;4949856;28;20134;-84
2021/07/23 05:55:32;;;;;;;14.07;11.02;;;;;;;14.29;91.47;101508.22;4948341;28;20058;-83
2021/07/23 05:58:00;;;;;;;16.23;10.75;;;;;;;14.31;91.99;101508.91;4932001;29;20426;-84
2021/07/23 06:00:26;;;;;;;14.70;10.82;;;;;;;14.40;90.97;101511.41;4946902;28;20055;-83
2021/07/23 06:02:53;;;;;;;14.50;11.05;;;;;;;14.53;91.04;101508.22;4946298;28;20298;-87
2021/07/23 06:05:19;;;;;;;14.70;10.00;;;;;;;14.63;90.16;101505.31;4945486;28;20051;-84
2021/07/23 06:07:44;;;;;;;15.23;10.18;;;;;;;14.70;89.84;101502.75;4945992;28;20134;-85
2021/07/23 06:10:10;;;;;;;16.27;9.88;;;;;;;14.76;89.61;101502.06;4945392;28;20127;-85
2021/07/23 06:12:35;;;;;;;13.82;9.98;;;;;;;14.87;89.32;101505.25;4944404;28;20189;-85
2021/07/23 06:15:01;;;;;;;11.23;8.98;;;;;;;14.96;90.26;101500.66;4945020;28;20055;-89
2021/07/23 06:17:26;;;;;;;14.35;9.35;;;;;;;15.06;89.95;101498.56;4934786;29;20118;-85
2021/07/23 06:19:52;;;;;;;13.52;9.60;;;;;;;15.17;89.23;101493.78;4932123;29;20052;-84
2021/07/23 06:22:19;;;;;;;13.95;9.45;;;;;;;15.26;88.24;101504.38;4962395;28;20471;-84
2021/07/23 06:24:44;;;;;;;12.23;8.55;;;;;;;15.38;88.15;101499.41;4952653;28;20082;-85
2021/07/23 06:27:10;;;;;;;13.40;8.23;;;;;;;15.46;87.44;101502.06;4947857;28;20043;-86
2021/07/23 06:29:35;;;;;;;13.43;8.75;;;;;;;15.54;87.75;101499.31;4956458;28;20122;-87
2021/07/23 06:32:01;;;;;;;12.55;8.75;;;;;;;15.63;87.21;101499.25;4953631;28;20047;-87
2021/07/23 06:34:26;;;;;;;12.27;8.75;;;;;;;15.77;86.69;101495.78;4946924;28;20055;-85
2021/07/23 06:36:52;;;;;;;10.88;8.30;;;;;;;15.81;86.36;101499.81;4943622;28;20066;-85
2021/07/23 06:39:17;;;;;;;11.65;7.43;;;;;;;15.90;86.34;101501.41;4946096;28;20055;-88
2021/07/23 06:41:42;;;;;;;13.52;7.25;;;;;;;15.99;85.99;101503.03;4944610;28;20047;-84
2021/07/23 06:44:08;;;;;;;9.68;6.63;;;;;;;16.07;86.40;101498.56;4946096;28;20046;-85
2021/07/23 06:46:33;;;;;;;10.63;6.30;;;;;;;16.20;85.43;101496.94;4942222;28;20711;-86
2021/07/23 06:48:58;;;;;;;8.43;5.55;;;;;;;16.27;84.88;101491.59;4939460;28;20047;-87
2021/07/23 06:51:24;;;;;;;8.60;5.75;;;;;;;16.35;84.39;101490.69;4938672;28;20254;-85
2021/07/23 06:53:49;;;;;;;9.40;6.35;;;;;;;16.41;84.06;101492.66;4945677;28;20062;-87
2021/07/23 06:56:15;;;;;;;8.38;5.40;;;;;;;16.46;83.03;101498.34;4943787;28;20102;-85
2021/07/23 06:58:40;;;;;;;8.55;5.55;;;;;;;16.54;83.29;101508.25;4946157;28;20065;-85
2021/07/23 07:01:07;;;;;;;9.20;5.28;;;;;;;16.68;82.17;101507.41;4943404;28;20115;-90
2021/07/23 07:03:33;;;;;;;8.55;5.15;;;;;;;16.74;81.79;101503.09;4943062;28;20070;-85
2021/07/23 07:05:58;;;;;;;7.05;4.70;;;;;;;16.80;81.97;101502.38;4945945;28;20713;-85
2021/07/23 07:08:24;;;;;;;9.15;4.53;;;;;;;16.84;81.73;101503.72;4935066;28;20070;-85
2021/07/23 07:10:50;;;;;;;6.82;4.93;;;;;;;16.96;80.68;101507.63;4944532;28;20066;-87
2021/07/23 07:13:15;;;;;;;7.53;4.60;;;;;;;17.00;79.29;101508.91;4944320;28;20502;-85
2021/07/23 07:15:41;;;;;;;7.13;4.68;;;;;;;17.11;79.24;101507.59;4941961;28;20414;-84
2021/07/23 07:18:06;;;;;;;6.85;4.57;;;;;;;17.22;78.64;101504.38;4943373;28;20214;-86
2021/07/23 07:20:33;;;;;;;6.50;4.28;;;;;;;17.27;78.66;101496.53;4944943;28;20545;-84
2021/07/23 07:22:59;;;;;;;6.75;4.22;;;;;;;17.30;79.01;101501.56;4940495;28;20047;-88
2021/07/23 07:25:25;;;;;;;7.22;4.50;;;;;;;17.24;78.02;101498.78;4943102;28;20134;-86
2021/07/23 07:27:53;;;;;;;7.07;4.20;;;;;;;17.41;79.13;101502.94;4941499;28;20134;-86
2021/07/23 07:30:18;;;;;;;6.10;3.92;;;;;;;17.55;78.25;101506.63;4936791;28;20643;-85
2021/07/23 07:32:43;;;;;;;7.13;3.90;;;;;;;17.59;76.89;101497.06;4944901;29;20070;-84
2021/07/23 07:35:09;;;;;;;5.80;3.65;;;;;;;17.66;76.60;101497.97;4944073;28;20126;-88
2021/07/23 07:37:35;;;;;;;6.72;4.03;;;;;;;17.82;77.25;101510.47;4943534;28;20062;-85
2021/07/23 07:40:02;;;;;;;7.85;3.72;;;;;;;17.83;76.26;101503.16;4942433;28;20062;-90
2021/07/23 07:42:30;;;;;;;5.43;3.80;;;;;;;17.83;75.49;101504.00;4943357;28;20047;-86
2021/07/23 07:44:55;;;;;;;6.93;3.67;;;;;;;17.88;75.34;101506.97;4943175;28;20074;-88
2021/07/23 07:47:21;;;;;;;5.40;3.67;;;;;;;17.95;76.21;101501.59;4942877;28;20083;-89
2021/07/23 07:49:47;;;;;;;8.98;4.13;;;;;;;18.03;76.03;101509.59;4944012;28;20652;-84
2021/07/23 07:52:12;;;;;;;7.18;4.25;;;;;;;18.13;75.86;101506.56;4941351;28;20098;-87
2021/07/23 07:54:38;;;;;;;5.57;3.80;;;;;;;18.15;75.06;101497.16;4944711;28;20357;-85
2021/07/23 07:57:07;;;;;;;6.50;3.78;;;;;;;18.01;75.27;101501.69;4942219;28;20047;-86
2021/07/23 07:59:33;;;;;;;6.82;4.05;;;;;;;18.14;76.13;101498.22;4943914;28;20071;-84
2021/07/23 08:01:59;;;;;;;6.18;4.00;;;;;;;18.29;74.58;101498.13;4944903;28;20354;-84
2021/07/23 08:04:25;;;;;;;6.55;4.22;;;;;;;18.32;74.41;101495.00;4942007;28;20059;-84
2021/07/23 08:06:50;;;;;;;8.30;4.40;;;;;;;18.37;74.82;101494.41;4945032;28;20047;-85
2021/07/23 08:09:16;;;;;;;5.75;3.90;;;;;;;18.47;75.91;101490.31;4942384;28;20051;-88
2021/07/23 08:11:42;;;;;;;6.53;3.97;;;;;;;18.59;74.06;101493.31;4941137;28;20063;-85
2021/07/23 08:14:08;;;;;;;6.78;3.70;;;;;;;18.53;74.04;101491.38;4943631;28;20129;-85
2021/07/23 08:16:34;;;;;;;7.88;4.05;;;;;;;18.51;73.83;101490.75;4942325;28;20044;-89
2021/07/23 08:19:12;;;;;;;5.93;3.97;;;;;;;18.55;74.57;101491.19;4947251;28;20134;-87
2021/07/23 08:21:37;;;;;;;6.22;4.40;;;;;;;18.60;74.51;101484.09;4914415;29;20047;-84
2021/07/23 08:24:03;;;;;;;7.78;4.47;;;;;;;18.69;74.18;101482.88;4943172;28;20057;-85
2021/07/23 08:26:29;;;;;;;7.20;4.47;;;;;;;18.85;73.84;101486.38;4944805;28;20094;-89
2021/07/23 08:28:54;;;;;;;6.32;3.55;;;;;;;19.02;73.32;101487.69;4946926;28;20131;-84
2021/07/23 08:31:20;;;;;;;6.68;3.90;;;;;;;19.06;73.93;101488.13;4947498;28;20814;-86
2021/07/23 08:33:46;;;;;;;7.97;4.32;;;;;;;19.07;72.46;101478.91;4948105;28;20055;-85
2021/07/23 08:36:11;;;;;;;6.32;3.55;;;;;;;19.17;72.49;101484.81;4947501;28;20056;-84
2021/07/23 08:38:37;;;;;;;7.35;4.07;;;;;;;19.07;72.05;101482.47;4948222;28;20479;-84
2021/07/23 08:41:03;;;;;;;5.57;2.70;;;;;;;19.11;73.05;101486.47;4945648;28;20049;-88
2021/07/23 08:43:29;;;;;;;4.85;2.72;;;;;;;19.14;72.23;101475.19;4947840;28;20055;-85
2021/07/23 08:45:55;;;;;;;6.85;3.40;;;;;;;19.18;71.66;101475.59;4946814;29;20048;-85
2021/07/23 08:48:21;;;;;;;5.68;3.10;;;;;;;19.15;71.22;101471.41;4946283;28;20050;-84
2021/07/23 08:50:46;;;;;;;7.78;3.60;;;;;;;19.39;71.88;101471.88;4947544;28;20051;-87
2021/07/23 08:53:12;;;;;;;5.43;3.40;;;;;;;19.53;70.95;101473.56;4944886;28;20383;-86
2021/07/23 08:55:38;;;;;;;6.55;3.15;;;;;;;19.62;71.26;101471.50;4948431;28;20078;-86
2021/07/23 08:58:08;;;;;;;5.85;3.85;;;;;;;19.75;71.34;101473.44;4950804;28;20126;-85
2021/07/23 09:00:34;;;;;;;4.88;3.53;;;;;;;19.73;69.61;101472.81;4952240;28;20182;-85
2021/07/23 09:03:05;;;;;;;6.00;3.65;;;;;;;19.78;70.88;101470.31;4949538;28;20051;-87
2021/07/23 09:05:33;;;;;;;4.97;3.30;;;;;;;19.86;70.96;101467.38;4950283;28;20122;-85
2021/07/23 09:08:11;;;;;;;5.63;3.40;;;;;;;19.91;69.73;101464.00;4950391;28;20043;-85
2021/07/23 09:10:37;;;;;;;6.55;3.15;;;;;;;19.91;69.56;101458.56;4947952;29;20063;-87
2021/07/23 09:13:03;;;;;;;5.35;3.78;;;;;;;20.00;68.65;101466.31;4950586;28;20047;-85
2021/07/23 09:15:40;;;;;;;5.93;3.20;;;;;;;20.00;69.02;101466.31;4952409;28;20124;-85
2021/07/23 09:18:08;;;;;;;4.68;3.05;;;;;;;20.10;69.97;101463.16;4950844;28;20044;-85
2021/07/23 09:20:34;;;;;;;4.22;2.72;;;;;;;20.09;67.03;101456.06;4950787;28;20094;-90
2021/07/23 09:23:01;;;;;;;6.47;2.83;;;;;;;20.09;67.51;101457.94;4951081;28;20569;-86
2021/07/23 09:25:44;;;;;;;5.43;3.30;;;;;;;20.01;66.59;101453.53;4949305;28;20650;-85
2021/07/23 09:28:24;;;;;;;5.78;3.55;;;;;;;20.04;68.92;101453.94;4949780;28;20086;-89
2021/07/23 09:30:51;;;;;;;5.75;3.60;;;;;;;20.16;66.97;101450.59;4938046;28;20057;-86
2021/07/23 09:33:24;;;;;;;5.22;2.97;;;;;;;20.17;67.50;101455.84;4962645;28;20047;-85
2021/07/23 09:35:54;;;;;;;3.97;2.90;;;;;;;20.23;67.46;101448.72;4938395;28;20046;-87
2021/07/23 09:38:24;;;;;;;5.57;3.00;;;;;;;20.05;67.86;101444.75;4949496;28;20127;-86
2021/07/23 09:40:52;;;;;;;4.78;2.88;;;;;;;20.10;68.42;101435.09;4950852;28;20036;-87
2021/07/23 09:43:30;;;;;;;5.65;3.58;;;;;;;20.23;67.50;101446.81;4950245;28;20126;-85
2021/07/23 09:46:16;;;;;;;4.80;2.67;;;;;;;20.10;67.98;101449.53;4950135;28;20050;-87
2021/07/23 09:48:41;;;;;;;4.18;2.88;;;;;;;19.96;68.42;101454.16;4964770;28;20039;-85
2021/07/23 09:51:07;;;;;;;4.22;2.45;;;;;;;19.97;68.58;101453.13;4950470;28;20502;-85
2021/07/23 09:53:35;;;;;;;4.40;2.65;;;;;;;19.98;68.69;101441.19;4951068;28;20055;-86
2021/07/23 09:56:04;;;;;;;3.83;2.58;;;;;;;20.04;68.12;101444.94;4948782;28;20077;-89
2021/07/23 09:58:30;;;;;;;4.65;2.50;;;;;;;20.21;67.75;101437.16;4948811;29;20062;-86
2021/07/23 10:00:57;;;;;;;5.38;3.00;;;;;;;20.01;67.90;101437.19;4949660;29;20591;-85
2021/07/23 10:03:27;;;;;;;4.38;3.20;;;;;;;19.78;68.60;101443.06;4950356;28;20050;-85
2021/07/23 10:06:03;;;;;;;4.80;2.65;;;;;;;19.98;68.03;101433.00;4950580;28;20039;-87
2021/07/23 10:08:35;;;;;;;4.13;2.60;;;;;;;20.20;68.75;101432.78;4949783;28;20138;-85
2021/07/23 10:11:01;;;;;;;5.97;3.42;;;;;;;20.18;68.77;101432.16;4951068;28;20134;-86
2021/07/23 10:13:29;;;;;;;5.57;3.67;;;;;;;20.37;68.37;101428.53;4950265;28;20130;-85
2021/07/23 10:15:55;;;;;;;6.63;3.77;;;;;;;20.38;68.74;101432.94;4948951;29;20055;-86
2021/07/23 10:18:24;;;;;;;6.75;4.65;;;;;;;20.26;68.51;101427.31;4947732;28;20035;-86
2021/07/23 10:20:50;;;;;;;7.10;4.72;;;;;;;20.12;68.84;101422.94;4950341;28;20110;-85
2021/07/23 10:23:20;;;;;;;7.85;4.65;;;;;;;20.03;69.07;101413.31;4949371;28;20122;-85
2021/07/23 10:25:50;;;;;;;5.20;3.40;;;;;;;19.97;68.55;101412.28;4950164;28;20066;-86
2021/07/23 10:28:42;;;;;;;4.90;3.25;;;;;;;20.04;69.48;101415.81;4948142;28;20070;-89
2021/07/23 10:31:24;;;;;;;4.72;3.20;;;;;;;20.17;68.37;101416.81;4949727;28;20486;-86
2021/07/23 10:34:12;;;;;;;5.63;3.70;;;;;;;20.08;68.92;101404.50;4944659;28;20059;-86
2021/07/23 10:36:41;;;;;;;5.00;3.35;;;;;;;20.14;67.97;101403.63;4932233;28;20062;-86
2021/07/23 10:39:13;;;;;;;5.95;3.75;;;;;;;20.23;67.52;101394.19;4938082;28;20127;-87
2021/07/23 10:41:41;;;;;;;5.65;3.72;;;;;;;20.28;68.50;101399.81;4943822;28;20051;-86
2021/07/23 10:44:33;;;;;;;8.48;4.38;;;;;;;20.07;68.77;101398.22;4945213;28;20050;-85
2021/07/23 10:46:59;;;;;;;6.15;3.92;;;;;;;20.24;69.83;101393.97;4940083;28;20078;-88
2021/07/23 10:49:24;;;;;;;7.50;3.28;;;;;;;20.29;70.36;101385.16;4943111;28;20066;-86
2021/07/23 10:51:52;;;;;;;5.25;3.95;;;;;;;20.39;68.44;101395.59;4944613;28;20135;-87
2021/07/23 10:54:25;;;;;;;5.20;3.67;;;;;;;20.46;67.19;101394.53;4942185;28;20050;-89
2021/07/23 10:57:03;;;;;;;5.53;3.47;;;;;;;20.46;68.34;101397.28;4945243;28;20126;-85
2021/07/23 10:59:38;;;;;;;4.90;3.57;;;;;;;20.51;68.21;101394.75;4944593;28;20055;-85
2021/07/23 11:02:15;;;;;;;6.50;2.97;;;;;;;20.48;67.96;101388.88;4943817;28;20291;-89
2021/07/23 11:04:42;;;;;;;5.55;3.60;;;;;;;20.77;67.23;101392.13;4956933;28;20043;-87
2021/07/23 11:07:10;;;;;;;4.50;3.30;;;;;;;20.79;66.29;101388.13;4942839;28;20040;-87
2021/07/23 11:09:37;;;;;;;6.15;3.30;;;;;;;21.16;66.98;101385.63;4943790;28;20219;-88
2021/07/23 11:12:28;;;;;;;4.35;2.70;;;;;;;21.20;66.73;101386.84;4944758;28;20066;-86
2021/07/23 11:14:54;;;;;;;5.32;3.10;;;;;;;21.53;64.57;101383.09;4921419;29;20074;-86